createdAt,value
2022-09-24T00:01:54.234Z,98490.13
2022-09-24T00:04:27.635Z,98419.81
2022-09-24T00:06:55.881Z,98430.63
2022-09-24T00:09:25.502Z,98483.22
2022-09-24T00:11:53.943Z,98444.81
2022-09-24T00:14:22.165Z,98489.84
2022-09-24T00:16:50.170Z,98495.75
2022-09-24T00:19:18.266Z,98457.75
2022-09-24T00:21:46.336Z,98480.47
2022-09-24T00:24:37.080Z,98427.88
2022-09-24T00:27:06.523Z,98426.06
2022-09-24T00:29:36.055Z,98481.84
2022-09-24T00:32:05.711Z,98466.81
2022-09-24T00:34:34.378Z,98472.28
2022-09-24T00:37:02.702Z,98472.81
2022-09-24T00:39:30.912Z,98394.88
2022-09-24T00:41:59.036Z,98476.34
2022-09-24T00:44:50.873Z,98374.66
2022-09-24T00:47:28.863Z,98460.47
2022-09-24T00:50:06.370Z,98423.81
2022-09-24T00:52:35.354Z,98417.69
2022-09-24T00:55:03.491Z,98399.72
2022-09-24T00:57:32.944Z,98443.53
2022-09-24T01:00:02.716Z,98399.84
2022-09-24T01:02:31.301Z,98427.41
2022-09-24T01:05:00.530Z,98392.09
2022-09-24T01:07:28.713Z,98389.66
2022-09-24T01:09:57.233Z,98390.34
2022-09-24T01:12:34.678Z,98361.38
2022-09-24T01:15:17.817Z,98369.97
2022-09-24T01:17:52.829Z,98437.91
2022-09-24T01:20:52.990Z,98375.91
2022-09-24T01:23:49.682Z,98439.03
2022-09-24T01:26:46.423Z,98431.97
2022-09-24T01:29:32.284Z,98405.09
2022-09-24T01:32:05.937Z,98424.88
2022-09-24T01:34:38.964Z,98359.34
2022-09-24T01:37:07.897Z,98416.53
2022-09-24T01:39:39.171Z,98407.06
2022-09-24T01:42:09.606Z,98430.00
2022-09-24T01:44:44.383Z,98404.78
2022-09-24T01:47:19.736Z,98427.63
2022-09-24T01:49:48.314Z,98387.75
2022-09-24T01:52:19.957Z,98423.03
2022-09-24T01:54:52.049Z,98411.41
2022-09-24T01:57:24.267Z,98453.44
2022-09-24T01:59:58.744Z,98409.81
2022-09-24T02:02:33.122Z,98442.94
2022-09-24T02:05:07.875Z,98405.25
2022-09-24T02:07:40.990Z,98368.94
2022-09-24T02:10:15.741Z,98392.78
2022-09-24T02:12:47.302Z,98382.44
2022-09-24T02:15:20.903Z,98342.38
2022-09-24T02:17:54.647Z,98387.06
2022-09-24T02:20:27.199Z,98433.75
2022-09-24T02:22:58.920Z,98338.47
2022-09-24T02:25:39.890Z,98438.28
2022-09-24T02:28:08.550Z,98414.69
2022-09-24T02:30:43.671Z,98352.34
2022-09-24T02:33:28.330Z,98386.78
2022-09-24T02:35:56.555Z,98414.06
2022-09-24T02:38:24.962Z,98356.66
2022-09-24T02:40:54.704Z,98377.84
2022-09-24T02:43:22.967Z,98347.00
2022-09-24T02:45:52.359Z,98331.56
2022-09-24T02:48:20.580Z,98385.09
2022-09-24T02:50:48.578Z,98402.09
2022-09-24T02:53:16.703Z,98377.78
2022-09-24T02:55:46.033Z,98400.13
2022-09-24T02:58:14.401Z,98344.91
2022-09-24T03:00:42.408Z,98416.84
2022-09-24T03:03:11.993Z,98346.75
2022-09-24T03:05:40.098Z,98390.19
2022-09-24T03:08:08.418Z,98407.31
2022-09-24T03:10:36.435Z,98390.50
2022-09-24T03:13:04.478Z,98432.13
2022-09-24T03:15:32.682Z,98437.72
2022-09-24T03:18:00.635Z,98427.47
2022-09-24T03:20:29.957Z,98432.06
2022-09-24T03:22:57.948Z,98424.09
2022-09-24T03:25:27.302Z,98380.06
2022-09-24T03:27:55.382Z,98334.72
2022-09-24T03:30:52.359Z,98427.22
2022-09-24T03:33:20.437Z,98400.97
2022-09-24T03:35:49.922Z,98370.47
2022-09-24T03:38:18.070Z,98427.81
2022-09-24T03:40:46.265Z,98331.97
2022-09-24T03:43:14.374Z,98331.13
2022-09-24T03:45:42.612Z,98355.06
2022-09-24T03:48:10.773Z,98355.94
2022-09-24T03:50:39.893Z,98417.44
2022-09-24T03:53:09.798Z,98389.00
2022-09-24T03:55:42.978Z,98402.75
2022-09-24T03:58:11.256Z,98404.84
2022-09-24T04:00:41.186Z,98391.69
2022-09-24T04:03:10.302Z,98311.50
2022-09-24T04:05:39.070Z,98328.03
2022-09-24T04:08:07.354Z,98393.91
2022-09-24T04:10:36.770Z,98345.41
2022-09-24T04:13:04.856Z,98388.06
2022-09-24T04:15:46.195Z,98383.84
2022-09-24T04:21:22.619Z,98313.22
2022-09-24T04:23:50.941Z,98308.00
2022-09-24T04:26:21.171Z,98356.66
2022-09-24T04:28:50.561Z,98382.13
2022-09-24T04:31:19.919Z,98350.88
2022-09-24T04:33:47.988Z,98367.00
2022-09-24T04:36:15.931Z,98360.81
2022-09-24T04:38:44.086Z,98354.31
2022-09-24T04:41:12.609Z,98351.00
2022-09-24T04:43:41.977Z,98371.47
2022-09-24T04:46:11.374Z,98373.44
2022-09-24T04:48:39.469Z,98360.81
2022-09-24T04:51:08.301Z,98370.03
2022-09-24T04:53:37.355Z,98356.53
2022-09-24T04:56:06.153Z,98370.97
2022-09-24T04:58:34.120Z,98348.78
2022-09-24T05:01:05.173Z,98351.31
2022-09-24T05:03:33.350Z,98366.50
2022-09-24T05:06:02.019Z,98366.78
2022-09-24T05:08:30.023Z,98362.50
2022-09-24T05:10:58.319Z,98367.16
2022-09-24T05:13:26.440Z,98369.25
2022-09-24T05:15:54.473Z,98371.34
2022-09-24T05:18:23.938Z,98351.72
2022-09-24T05:20:51.855Z,98374.28
2022-09-24T05:23:20.254Z,98346.09
2022-09-24T05:26:08.119Z,98369.78
2022-09-24T05:28:39.875Z,98372.19
2022-09-24T05:32:04.153Z,98339.97
2022-09-24T05:34:59.638Z,98283.94
2022-09-24T05:37:27.694Z,98298.25
2022-09-24T05:39:57.957Z,98323.28
2022-09-24T05:42:29.254Z,98348.66
2022-09-24T05:44:57.610Z,98333.97
2022-09-24T05:47:25.932Z,98364.09
2022-09-24T05:50:01.278Z,98391.41
2022-09-24T05:53:38.612Z,98401.22
2022-09-24T05:56:04.903Z,98338.28
2022-09-24T05:58:33.097Z,98366.84
2022-09-24T06:01:02.156Z,98319.78
2022-09-24T06:03:32.046Z,98361.22
2022-09-24T06:06:44.920Z,98365.88
2022-09-24T06:17:37.129Z,98325.13
2022-09-24T06:20:07.214Z,98311.53
2022-09-24T06:29:26.912Z,98348.91
2022-09-24T06:31:55.015Z,98432.06
2022-09-24T06:34:23.523Z,98422.38
2022-09-24T06:36:55.078Z,98357.31
2022-09-24T06:39:26.838Z,98363.91
2022-09-24T06:41:55.108Z,98335.75
2022-09-24T06:44:23.154Z,98361.06
2022-09-24T06:46:51.107Z,98402.00
2022-09-24T06:49:19.165Z,98430.56
2022-09-24T06:51:47.108Z,98427.06
2022-09-24T06:54:15.336Z,98422.03
2022-09-24T06:56:44.630Z,98419.88
2022-09-24T06:59:12.707Z,98419.88
2022-09-24T07:01:40.805Z,98422.41
2022-09-24T07:04:08.784Z,98433.94
2022-09-24T07:06:50.563Z,98436.63
2022-09-24T07:09:18.471Z,98431.59
2022-09-24T07:11:47.744Z,98427.78
2022-09-24T07:14:15.681Z,98430.97
2022-09-24T07:16:43.578Z,98421.41
2022-09-24T07:19:11.508Z,98430.50
2022-09-24T07:21:39.637Z,98427.56
2022-09-24T07:24:08.029Z,98432.03
2022-09-24T07:26:35.903Z,98398.66
2022-09-24T07:29:05.629Z,98422.22
2022-09-24T07:31:33.756Z,98422.72
2022-09-24T07:34:01.798Z,98425.25
2022-09-24T07:36:31.138Z,98415.84
2022-09-24T07:38:59.380Z,98431.81
2022-09-24T07:41:27.249Z,98436.03
2022-09-24T07:43:57.053Z,98436.34
2022-09-24T07:46:26.451Z,98429.84
2022-09-24T07:48:56.190Z,98436.88
2022-09-24T07:51:24.321Z,98425.50
2022-09-24T07:53:52.292Z,98435.06
2022-09-24T07:56:20.740Z,98428.69
2022-09-24T07:58:52.830Z,98419.47
2022-09-24T08:01:21.673Z,98429.94
2022-09-24T08:03:53.236Z,98430.22
2022-09-24T08:06:23.088Z,98444.84
2022-09-24T08:08:53.057Z,98445.97
2022-09-24T08:11:21.691Z,98427.63
2022-09-24T08:13:49.857Z,98423.59
2022-09-24T08:16:19.463Z,98445.31
2022-09-24T08:18:47.386Z,98451.16
2022-09-24T08:21:17.898Z,98456.75
2022-09-24T08:23:46.111Z,98446.97
2022-09-24T08:26:15.061Z,98443.22
2022-09-24T08:28:43.292Z,98448.50
2022-09-24T08:31:34.246Z,98411.22
2022-09-24T08:34:02.657Z,98421.66
2022-09-24T08:36:31.952Z,98452.13
2022-09-24T08:38:59.879Z,98458.19
2022-09-24T08:41:47.412Z,98428.00
2022-09-24T08:44:41.070Z,98456.81
2022-09-24T08:47:25.813Z,98452.22
2022-09-24T08:50:03.435Z,98469.84
2022-09-24T08:52:52.076Z,98455.41
2022-09-24T08:55:25.309Z,98467.34
2022-09-24T08:58:01.055Z,98463.59
2022-09-24T09:00:32.952Z,98463.81
2022-09-24T09:03:08.012Z,98458.00
2022-09-24T09:05:51.128Z,98459.97
2022-09-24T09:11:25.605Z,98466.13
2022-09-24T09:13:58.777Z,98466.97
2022-09-24T09:16:32.620Z,98459.88
2022-09-24T09:19:06.608Z,98464.63
2022-09-24T09:21:42.060Z,98450.00
2022-09-24T09:24:19.280Z,98460.56
2022-09-24T09:26:54.177Z,98461.69
2022-09-24T09:29:26.651Z,98464.03
2022-09-24T09:32:07.215Z,98383.63
2022-09-24T09:35:02.298Z,98417.44
2022-09-24T09:37:53.719Z,98372.31
2022-09-24T09:40:42.997Z,98435.63
2022-09-24T09:43:14.828Z,98424.88
2022-09-24T09:49:03.912Z,98428.66
2022-09-24T09:51:37.374Z,98472.19
2022-09-24T09:54:06.062Z,98476.00
2022-09-24T09:56:38.189Z,98481.31
2022-09-24T09:59:10.819Z,98473.38
2022-09-24T10:01:41.879Z,98466.44
2022-09-24T10:04:29.931Z,98473.34
2022-09-24T10:07:09.028Z,98479.34
2022-09-24T10:09:38.110Z,98476.09
2022-09-24T10:12:21.309Z,98475.84
2022-09-24T10:14:59.227Z,98465.72
2022-09-24T10:17:31.534Z,98466.56
2022-09-24T10:20:02.386Z,98443.31
2022-09-24T10:22:32.104Z,98436.16
2022-09-24T10:25:02.192Z,98411.84
2022-09-24T10:27:36.543Z,98461.69
2022-09-24T10:30:31.051Z,98459.84
2022-09-24T10:32:59.716Z,98456.50
2022-09-24T10:35:29.838Z,98457.69
2022-09-24T10:37:59.275Z,98453.97
2022-09-24T10:40:31.020Z,98432.34
2022-09-24T10:43:02.353Z,98453.34
2022-09-24T10:45:55.541Z,98450.13
2022-09-24T10:48:28.256Z,98440.38
2022-09-24T10:51:04.133Z,98433.84
2022-09-24T10:53:49.160Z,98368.25
2022-09-24T10:56:27.888Z,98430.44
2022-09-24T10:59:28.118Z,98425.69
2022-09-24T11:02:28.941Z,98420.34
2022-09-24T11:05:00.544Z,98428.19
2022-09-24T11:07:56.558Z,98418.97
2022-09-24T11:10:44.697Z,98408.22
2022-09-24T11:13:23.391Z,98421.53
2022-09-24T11:16:39.156Z,98425.84
2022-09-24T11:19:19.182Z,98411.22
2022-09-24T11:22:09.468Z,98423.50
2022-09-24T11:24:57.287Z,98417.91
2022-09-24T11:27:40.097Z,98412.97
2022-09-24T11:30:14.603Z,98418.28
2022-09-24T11:33:09.537Z,98416.91
2022-09-24T11:36:04.650Z,98416.19
2022-09-24T11:38:44.553Z,98412.38
2022-09-24T11:41:24.156Z,98403.25
2022-09-24T11:44:22.249Z,98399.72
2022-09-24T11:47:04.845Z,98401.66
2022-09-24T11:49:48.894Z,98388.53
2022-09-24T11:52:23.487Z,98397.69
2022-09-24T11:55:01.329Z,98372.97
2022-09-24T11:57:33.072Z,98382.72
2022-09-24T12:00:06.151Z,98391.97
2022-09-24T12:02:38.300Z,98383.47
2022-09-24T12:05:14.293Z,98380.84
2022-09-24T12:07:49.845Z,98379.31
2022-09-24T12:10:29.948Z,98370.13
2022-09-24T12:13:04.304Z,98382.22
2022-09-24T12:15:48.489Z,98355.09
2022-09-24T12:18:22.515Z,98380.59
2022-09-24T12:20:56.362Z,98379.75
2022-09-24T12:23:30.076Z,98362.84
2022-09-24T12:25:59.185Z,98376.16
2022-09-24T12:28:48.815Z,98381.66
2022-09-24T12:31:45.018Z,98386.06
2022-09-24T12:34:20.117Z,98391.13
2022-09-24T12:36:59.211Z,98374.13
2022-09-24T12:39:32.537Z,98374.13
2022-09-24T12:42:04.346Z,98363.47
2022-09-24T12:44:41.013Z,98350.19
2022-09-24T12:47:18.994Z,98356.81
2022-09-24T12:49:51.737Z,98350.94
2022-09-24T12:52:26.946Z,98337.84
2022-09-24T12:55:03.432Z,98350.59
2022-09-24T12:57:36.877Z,98347.22
2022-09-24T13:00:26.782Z,98357.66
2022-09-24T13:02:55.286Z,98347.59
2022-09-24T13:05:33.621Z,98354.44
2022-09-24T13:08:05.164Z,98348.56
2022-09-24T13:10:34.605Z,98352.97
2022-09-24T13:13:04.405Z,98335.34
2022-09-24T13:15:35.680Z,98333.84
2022-09-24T13:18:24.330Z,98351.09
2022-09-24T13:21:02.294Z,98344.25
2022-09-24T13:23:46.050Z,98335.19
2022-09-24T13:26:27.272Z,98337.56
2022-09-24T13:28:58.539Z,98334.88
2022-09-24T13:31:38.782Z,98326.50
2022-09-24T13:34:17.496Z,98334.56
2022-09-24T13:36:50.390Z,98327.09
2022-09-24T13:39:24.095Z,98314.66
2022-09-24T13:41:59.009Z,98325.03
2022-09-24T13:44:31.584Z,98319.59
2022-09-24T13:47:05.285Z,98273.47
2022-09-24T13:49:34.321Z,98301.78
2022-09-24T13:52:14.119Z,98303.63
2022-09-24T13:54:50.484Z,98304.66
2022-09-24T13:57:24.508Z,98307.25
2022-09-24T14:00:15.448Z,98297.38
2022-09-24T14:02:46.029Z,98295.03
2022-09-24T14:05:18.647Z,98266.72
2022-09-24T14:07:56.139Z,98284.63
2022-09-24T14:10:26.045Z,98251.78
2022-09-24T14:13:11.155Z,98290.25
2022-09-24T14:15:39.172Z,98291.75
2022-09-24T14:18:12.665Z,98288.59
2022-09-24T14:20:42.163Z,98282.09
2022-09-24T14:23:20.448Z,98283.00
2022-09-24T14:25:52.119Z,98285.13
2022-09-24T14:28:21.891Z,98280.69
2022-09-24T14:30:53.440Z,98236.44
2022-09-24T14:36:18.730Z,98219.75
2022-09-24T14:38:57.874Z,98267.66
2022-09-24T14:44:23.667Z,98280.34
2022-09-24T14:47:03.652Z,98210.78
2022-09-24T14:50:46.950Z,98249.03
2022-09-24T14:52:40.808Z,98208.44
2022-09-24T14:57:57.461Z,98262.47
2022-09-24T15:35:53.091Z,98282.84
2022-09-24T15:45:58.199Z,98232.66
2022-09-24T15:49:20.806Z,98192.03
2022-09-24T16:01:08.619Z,98204.47
2022-09-24T16:03:38.038Z,98264.78
2022-09-24T16:06:06.093Z,98276.03
2022-09-24T16:08:33.987Z,98267.63
2022-09-24T16:11:05.781Z,98275.81
2022-09-24T16:13:36.877Z,98271.97
2022-09-24T16:16:08.534Z,98231.75
2022-09-24T16:18:39.891Z,98242.19
2022-09-24T16:21:08.676Z,98270.84
2022-09-24T16:23:36.738Z,98263.00
2022-09-24T16:26:05.081Z,98235.53
2022-09-24T16:28:33.094Z,98280.63
2022-09-24T16:31:01.160Z,98278.13
2022-09-24T16:33:29.295Z,98272.47
2022-09-24T16:36:04.941Z,98290.41
2022-09-24T16:38:35.816Z,98249.84
2022-09-24T16:41:04.386Z,98231.31
2022-09-24T16:43:33.001Z,98254.78
2022-09-24T16:46:03.710Z,98240.38
2022-09-24T16:48:32.070Z,98252.09
2022-09-24T16:51:05.032Z,98280.59
2022-09-24T16:53:34.228Z,98290.97
2022-09-24T16:56:07.901Z,98293.66
2022-09-24T16:58:35.834Z,98306.75
2022-09-24T17:01:05.847Z,98302.72
2022-09-24T17:03:33.965Z,98304.72
2022-09-24T17:06:02.190Z,98303.22
2022-09-24T17:08:48.765Z,98268.97
2022-09-24T17:11:17.411Z,98291.94
2022-09-24T17:13:47.518Z,98302.00
2022-09-24T17:16:16.076Z,98257.31
2022-09-24T17:18:44.166Z,98258.63
2022-09-24T17:21:13.700Z,98246.78
2022-09-24T17:23:43.107Z,98240.78
2022-09-24T17:26:13.534Z,98309.00
2022-09-24T17:28:43.397Z,98305.56
2022-09-24T17:31:14.428Z,98275.91
2022-09-24T17:33:44.224Z,98323.41
2022-09-24T17:36:14.275Z,98328.19
2022-09-24T17:38:43.737Z,98328.06
2022-09-24T17:41:13.473Z,98331.94
2022-09-24T17:43:42.692Z,98338.88
2022-09-24T17:46:14.649Z,98311.25
2022-09-24T17:48:44.650Z,98294.97
2022-09-24T17:51:15.865Z,98340.06
2022-09-24T17:53:45.198Z,98273.34
2022-09-24T17:56:14.972Z,98345.97
2022-09-24T17:58:44.740Z,98354.56
2022-09-24T18:01:15.149Z,98355.88
2022-09-24T18:03:43.287Z,98350.03
2022-09-24T18:06:13.992Z,98298.38
2022-09-24T18:08:45.133Z,98307.28
2022-09-24T18:11:15.240Z,98324.28
2022-09-24T18:13:43.335Z,98351.34
2022-09-24T18:16:13.056Z,98334.22
2022-09-24T18:18:41.884Z,98332.06
2022-09-24T18:21:14.503Z,98309.72
2022-09-24T18:23:44.340Z,98318.03
2022-09-24T18:26:13.930Z,98375.53
2022-09-24T18:28:43.469Z,98384.75
2022-09-24T18:31:12.102Z,98383.38
2022-09-24T18:33:41.791Z,98382.50
2022-09-24T18:36:12.487Z,98390.66
2022-09-24T18:38:40.844Z,98314.31
2022-09-24T18:41:12.961Z,98326.78
2022-09-24T18:43:41.475Z,98386.78
2022-09-24T18:46:12.219Z,98337.09
2022-09-24T18:48:44.254Z,98327.22
2022-09-24T18:51:17.646Z,98378.34
2022-09-24T18:53:46.158Z,98354.13
2022-09-24T18:56:15.864Z,98339.50
2022-09-24T18:58:43.857Z,98383.97
2022-09-24T19:01:11.914Z,98382.78
2022-09-24T19:03:40.042Z,98395.13
2022-09-24T19:06:10.569Z,98385.47
2022-09-24T19:08:38.521Z,98401.28
2022-09-24T19:11:09.421Z,98398.91
2022-09-24T19:13:39.727Z,98399.50
2022-09-24T19:16:10.532Z,98399.94
2022-09-24T19:18:39.011Z,98396.50
2022-09-24T19:21:08.904Z,98387.00
2022-09-24T19:23:38.392Z,98394.84
2022-09-24T19:26:08.602Z,98402.97
2022-09-24T19:28:40.923Z,98404.50
2022-09-24T19:31:14.464Z,98396.59
2022-09-24T19:33:42.478Z,98400.00
2022-09-24T19:36:11.171Z,98406.91
2022-09-24T19:38:39.551Z,98389.50
2022-09-24T19:41:10.673Z,98398.22
2022-09-24T19:43:41.104Z,98391.34
2022-09-24T19:46:11.355Z,98396.81
2022-09-24T19:48:42.142Z,98398.50
2022-09-24T19:51:14.239Z,98379.97
2022-09-24T19:53:42.441Z,98365.69
2022-09-24T19:56:12.140Z,98386.56
2022-09-24T19:58:42.017Z,98391.63
2022-09-24T20:01:16.193Z,98395.00
2022-09-24T20:03:45.118Z,98398.34
2022-09-24T20:06:14.449Z,98394.34
2022-09-24T20:08:42.752Z,98392.78
2022-09-24T20:11:17.250Z,98402.50
2022-09-24T20:13:47.286Z,98390.88
2022-09-24T20:16:19.532Z,98403.19
2022-09-24T20:18:47.981Z,98396.59
2022-09-24T20:21:18.507Z,98392.63
2022-09-24T20:23:47.084Z,98389.72
2022-09-24T20:26:33.453Z,98387.50
2022-09-24T20:29:03.217Z,98403.34
2022-09-24T20:31:31.646Z,98402.50
2022-09-24T20:34:01.007Z,98408.66
2022-09-24T20:36:29.191Z,98391.25
2022-09-24T20:38:57.086Z,98396.59
2022-09-24T20:41:26.004Z,98385.09
2022-09-24T20:43:56.328Z,98412.97
2022-09-24T20:46:27.792Z,98412.16
2022-09-24T20:48:59.277Z,98408.66
2022-09-24T20:51:29.309Z,98405.00
2022-09-24T20:53:59.237Z,98407.28
2022-09-24T20:56:30.495Z,98399.28
2022-09-24T20:58:58.762Z,98399.56
2022-09-24T21:01:29.006Z,98390.44
2022-09-24T21:03:58.343Z,98397.19
2022-09-24T21:06:26.686Z,98384.28
2022-09-24T21:08:54.615Z,98395.53
2022-09-24T21:11:25.257Z,98397.06
2022-09-24T21:13:54.823Z,98396.75
2022-09-24T21:16:25.065Z,98391.25
2022-09-24T21:18:55.303Z,98399.84
2022-09-24T21:21:24.922Z,98389.00
2022-09-24T21:23:55.020Z,98396.59
2022-09-24T21:26:24.503Z,98383.81
2022-09-24T21:28:55.608Z,98387.59
2022-09-24T21:31:25.853Z,98380.00
2022-09-24T21:33:55.470Z,98380.47
2022-09-24T21:36:24.751Z,98383.69
2022-09-24T21:38:55.427Z,98372.84
2022-09-24T21:41:24.047Z,98364.31
2022-09-24T21:43:53.610Z,98362.63
2022-09-24T21:46:21.951Z,98381.97
2022-09-24T21:48:51.433Z,98380.47
2022-09-24T21:51:22.603Z,98392.09
2022-09-24T21:53:51.484Z,98396.34
2022-09-24T21:56:20.266Z,98398.53
2022-09-24T21:58:48.671Z,98386.06
2022-09-24T22:01:18.329Z,98403.84
2022-09-24T22:03:46.791Z,98391.06
2022-09-24T22:06:15.383Z,98397.72
2022-09-24T22:08:46.946Z,98382.22
2022-09-24T22:11:15.810Z,98395.88
2022-09-24T22:13:45.179Z,98366.38
2022-09-24T22:16:13.530Z,98378.97
2022-09-24T22:18:41.648Z,98384.72
2022-09-24T22:21:11.755Z,98409.72
2022-09-24T22:23:40.018Z,98373.66
2022-09-24T22:26:10.863Z,98410.38
2022-09-24T22:28:39.188Z,98321.50
2022-09-24T22:31:10.059Z,98366.38
2022-09-24T22:33:57.999Z,98326.28
2022-09-24T22:36:28.113Z,98393.69
2022-09-24T22:38:57.482Z,98405.84
2022-09-24T22:41:28.824Z,98354.28
2022-09-24T22:43:57.788Z,98406.09
2022-09-24T22:46:27.584Z,98403.56
2022-09-24T22:48:56.283Z,98324.41
2022-09-24T22:51:26.612Z,98316.66
2022-09-24T22:53:55.603Z,98395.50
2022-09-24T22:56:25.513Z,98310.44
2022-09-24T22:58:56.538Z,98311.63
2022-09-24T23:01:27.485Z,98340.88
2022-09-24T23:03:56.966Z,98343.75
2022-09-24T23:06:25.815Z,98413.63
2022-09-24T23:08:55.910Z,98404.66
2022-09-24T23:11:25.538Z,98347.84
2022-09-24T23:13:56.930Z,98373.03
2022-09-24T23:16:27.550Z,98310.06
2022-09-24T23:18:57.148Z,98391.63
2022-09-24T23:21:27.331Z,98364.53
2022-09-24T23:23:56.556Z,98390.44
2022-09-24T23:26:25.986Z,98304.63
2022-09-24T23:28:57.764Z,98300.09
2022-09-24T23:31:28.643Z,98346.16
2022-09-24T23:33:58.629Z,98333.19
2022-09-24T23:36:27.974Z,98350.88
2022-09-24T23:38:56.104Z,98359.44
2022-09-24T23:41:24.530Z,98306.50
2022-09-24T23:43:52.635Z,98375.75
2022-09-24T23:46:22.323Z,98299.50
2022-09-24T23:48:50.478Z,98374.16
2022-09-24T23:51:18.582Z,98396.53
2022-09-24T23:53:46.678Z,98335.56
2022-09-24T23:56:14.762Z,98349.28
2022-09-24T23:58:43.297Z,98315.16
